ADDS METAR Data INFO
IDs: Format: Raw Decoded Include TAF

Data at: 0837 UTC 21 Oct 2017

KC75 210815Z AUTO 18009KT 10SM SCT120 17/11 A3002 RMK AO2 T01700105
KC75 210755Z AUTO 18006KT 10SM BKN120 17/11 A3002 RMK AO2 T01720105
KC75 210735Z AUTO 18007KT 10SM BKN120 18/11 A3002 RMK AO2 T01750106
KC75 210715Z AUTO 18009KT 10SM BKN120 18/11 A3002 RMK AO2 T01760106
KC75 210655Z AUTO 18008KT 10SM BKN120 18/11 A3002 RMK AO2 T01820106
KC75 210635Z AUTO 18009G16KT 10SM CLR 19/10 A3002 RMK AO2 T01850104
KC75 210615Z AUTO 19010KT 10SM CLR 19/10 A3002 RMK AO2 T01860102
KC75 210555Z AUTO 19012G15KT 10SM CLR 19/11 A3002 RMK AO2 T01870105 10204 20165 402560117
KC75 210535Z AUTO 19012G17KT 10SM CLR 19/10 A3002 RMK AO2 T01870102
KC75 210515Z AUTO 19009G16KT 10SM CLR 19/10 A3002 RMK AO2 T01880100
KC75 210455Z AUTO 19012G17KT 10SM CLR 19/10 A3002 RMK AO2 T01870099
KC75 210435Z AUTO 19012G17KT 10SM SCT120 19/10 A3003 RMK AO2 T01870099
KC75 210415Z AUTO 19009KT 10SM SCT120 19/10 A3003 RMK AO2 T01860096
KC75 210355Z AUTO 18009G15KT 10SM CLR 19/10 A3002 RMK AO2 T01900095
KC75 210335Z AUTO 19010G15KT 10SM CLR 19/10 A3003 RMK AO2 T01900095
KC75 210310Z AUTO 18008KT 10SM CLR 19/09 A3002 RMK AO2 T01900092
KC75 210255Z AUTO 18012G17KT 10SM CLR 19/09 A3003 RMK AO2 T01890088
KC75 210235Z AUTO 18010G17KT 10SM CLR 19/08 A3003 RMK AO2 T01880083
KC75 210215Z AUTO 18009KT 10SM CLR 18/08 A3003 RMK AO2 T01760077
KC75 210150Z AUTO 17006KT 10SM CLR 17/07 A3001 RMK AO2 T01660073
KC75 210135Z AUTO 16007KT 10SM CLR 17/07 A3001 RMK AO2 T01720071
KC75 210115Z AUTO 16008KT 10SM CLR 18/07 A3001 RMK AO2 T01840070
KC75 210055Z AUTO 17007KT 10SM CLR 19/07 A3002 RMK AO2 T01860068
KC75 210035Z AUTO 17008KT 10SM CLR 19/07 A3002 RMK AO2 T01900070
KC75 210015Z AUTO 16008KT 10SM CLR 20/07 A3002 RMK AO2 T02000069
KC75 202355Z AUTO 16007KT 10SM CLR 21/07 A3002 RMK AO2 T02050070 10256 20198
KC75 202335Z AUTO 17006KT 10SM CLR 20/08 A3002 RMK AO2 T02030075
KC75 202315Z AUTO 16007KT 10SM CLR 21/08 A3002 RMK AO2 T02070079
KC75 202255Z AUTO 15006KT 10SM CLR 22/08 A3002 RMK AO2 T02190080
KC75 202235Z AUTO 16007KT 10SM CLR 22/08 A3002 RMK AO2 T02200083
KC75 202215Z AUTO 17006KT 10SM CLR 23/08 A3002 RMK AO2 T02300084
KC75 202155Z AUTO 18008KT 10SM CLR 24/08 A3003 RMK AO2 T02370083
KC75 202135Z AUTO 17009KT 10SM CLR 24/09 A3003 RMK AO2 T02440091
KC75 202115Z AUTO 19008KT 10SM CLR 25/09 A3004 RMK AO2 T02500090
KC75 202055Z AUTO 19006KT 10SM CLR 24/09 A3004 RMK AO2 T02400092
KC75 202035Z AUTO 18007KT 10SM CLR 25/10 A3004 RMK AO2 T02460103
KC75 202015Z AUTO 17009KT 10SM CLR 25/10 A3004 RMK AO2 T02460104
KC75 201955Z AUTO 17009KT 10SM CLR 25/10 A3005 RMK AO2 T02520103
KC75 201930Z AUTO 16010G14KT 10SM CLR 25/11 A3006 RMK AO2 T02540108
KC75 201915Z AUTO 18011G16KT 10SM CLR 25/10 A3006 RMK AO2 T02530103
KC75 201855Z AUTO 17009G15KT 10SM CLR 25/11 A3007 RMK AO2 T02520110
KC75 201835Z AUTO 16007KT 10SM CLR 25/12 A3008 RMK AO2 T02460124
KC75 201815Z AUTO 23005KT 10SM CLR 24/12 A3009 RMK AO2 T02380124
KC75 201755Z AUTO 20004KT 10SM CLR 24/12 A3011 RMK AO2 T02350121 10236 20117
KC75 201735Z AUTO 20003KT 10SM CLR 23/12 A3012 RMK AO2 T02290120
KC75 201715Z AUTO 17003KT 10SM CLR 22/12 A3013 RMK AO2 T02200118
KC75 201655Z AUTO 19003KT 10SM CLR 21/12 A3014 RMK AO2 T02140122
KC75 201635Z AUTO 22003KT 10SM CLR 21/12 A3015 RMK AO2 T02060118
KC75 201615Z AUTO 20004KT 10SM CLR 20/12 A3016 RMK AO2 T02010118
KC75 201555Z AUTO 21005KT 10SM CLR 19/12 A3016 RMK AO2 T01920117
KC75 201535Z AUTO 22006KT 10SM CLR 19/11 A3017 RMK AO2 T01850114
KC75 201515Z AUTO 22007KT 10SM CLR 18/11 A3018 RMK AO2 T01790112
KC75 201455Z AUTO 20007KT 10SM CLR 17/11 A3018 RMK AO2 T01720112
KC75 201435Z AUTO 22007KT 10SM CLR 16/11 A3018 RMK AO2 T01640110
KC75 201415Z AUTO 20006KT 10SM CLR 17/11 A3018 RMK AO2 T01650111
KC75 201355Z AUTO 20007KT 10SM CLR 16/11 A3018 RMK AO2 T01550110
KC75 201335Z AUTO 19005KT 10SM CLR 14/11 A3017 RMK AO2 T01440106
KC75 201315Z AUTO 16005KT 10SM CLR 14/10 A3017 RMK AO2 T01360101
KC75 201255Z AUTO 16004KT 10SM CLR 13/10 A3017 RMK AO2 T01270099
KC75 201235Z AUTO 17003KT 10SM CLR 12/10 A3016 RMK AO2 T01200096
KC75 201215Z AUTO 16004KT 10SM CLR 12/10 A3016 RMK AO2 T01200095
KC75 201150Z AUTO 16004KT 10SM CLR 12/10 A3016 RMK AO2 T01220095 10146 20121
KC75 201130Z AUTO 15005KT 10SM CLR 13/10 A3015 RMK AO2 T01250095
KC75 201115Z AUTO 15004KT 10SM CLR 12/10 A3015 RMK AO2 T01230096
KC75 201055Z AUTO 15004KT 10SM CLR 12/10 A3015 RMK AO2 T01230096
KC75 201035Z AUTO 15004KT 10SM CLR 13/10 A3015 RMK AO2 T01250096
KC75 201015Z AUTO 15004KT 10SM CLR 13/10 A3014 RMK AO2 T01300096
KC75 200955Z AUTO 15005KT 10SM CLR 13/10 A3013 RMK AO2 T01340096
KC75 200935Z AUTO 15004KT 10SM CLR 13/10 A3013 RMK AO2 T01300096
KC75 200915Z AUTO 15004KT 10SM CLR 13/10 A3013 RMK AO2 T01310096
KC75 200855Z AUTO 15005KT 10SM CLR 13/10 A3013 RMK AO2 T01330096
KC75 200835Z AUTO 15005KT 10SM CLR 14/10 A3013 RMK AO2 T01360096
KC75 200815Z AUTO 15004KT 10SM CLR 14/10 A3013 RMK AO2 T01360096
KC75 200755Z AUTO 15004KT 10SM CLR 14/10 A3013 RMK AO2 T01360097
KC75 200735Z AUTO 15004KT 10SM CLR 14/10 A3013 RMK AO2 T01400097
KC75 200715Z AUTO 15004KT 10SM CLR 14/10 A3013 RMK AO2 T01400098
KC75 200655Z AUTO 14004KT 10SM CLR 14/10 A3012 RMK AO2 T01410099
KC75 200635Z AUTO 16003KT 10SM CLR 14/10 A3012 RMK AO2 T01400099
KC75 200615Z AUTO 16004KT 10SM CLR 14/10 A3013 RMK AO2 T01430101
KC75 200555Z AUTO 16003KT 10SM CLR 14/10 A3012 RMK AO2 T01410101 10175 20137 402380085
KC75 200535Z AUTO 16003KT 10SM CLR 14/10 A3012 RMK AO2 T01410102
KC75 200515Z AUTO 16003KT 10SM CLR 14/10 A3012 RMK AO2 T01420103
KC75 200455Z AUTO 16003KT 10SM CLR 14/10 A3012 RMK AO2 T01420103
KC75 200435Z AUTO 15003KT 10SM CLR 15/11 A3013 RMK AO2 T01470105
KC75 200415Z AUTO 15003KT 10SM CLR 15/11 A3013 RMK AO2 T01470105
KC75 200355Z AUTO 00000KT 10SM CLR 15/11 A3013 RMK AO2 T01500106
KC75 200335Z AUTO 15003KT 10SM CLR 16/11 A3013 RMK AO2 T01550105
KC75 200315Z AUTO 16003KT 10SM CLR 15/11 A3013 RMK AO2 T01510107
KC75 200255Z AUTO 15003KT 10SM CLR 16/11 A3013 RMK AO2 T01560106
KC75 200235Z AUTO 15003KT 10SM CLR 16/11 A3013 RMK AO2 T01640105
KC75 200215Z AUTO 00000KT 10SM CLR 16/11 A3012 RMK AO2 T01570106
KC75 200155Z AUTO 14004KT 10SM CLR 17/11 A3012 RMK AO2 T01670107
KC75 200135Z AUTO 16003KT 10SM CLR 17/11 A3012 RMK AO2 T01700107
KC75 200115Z AUTO 13004KT 10SM CLR 16/11 A3012 RMK AO2 T01580108
KC75 200055Z AUTO 12003KT 10SM CLR 15/11 A3013 RMK AO2 T01500113
KC75 200035Z AUTO 00000KT 10SM CLR 14/12 A3013 RMK AO2 T01440117
KC75 200015Z AUTO 00000KT 10SM CLR 16/11 A3013 RMK AO2 T01550111
KC75 192355Z AUTO 00000KT 10SM CLR 15/11 A3012 RMK AO2 T01540114 10238 20152
KC75 192335Z AUTO 00000KT 10SM CLR 16/11 A3012 RMK AO2 T01570112
KC75 192315Z AUTO 00000KT 10SM CLR 18/12 A3012 RMK AO2 T01830117
KC75 192255Z AUTO 00000KT 10SM CLR 21/11 A3012 RMK AO2 T02130112
KC75 192235Z AUTO 00000KT 10SM CLR 22/12 A3012 RMK AO2 T02230116
KC75 192215Z AUTO 17003KT 10SM CLR 23/11 A3012 RMK AO2 T02300111
KC75 192155Z AUTO 17003KT 10SM CLR 23/11 A3012 RMK AO2 T02330108
KC75 192135Z AUTO 00000KT 10SM CLR 24/11 A3012 RMK AO2 T02360108
KC75 192115Z AUTO 17003KT 10SM CLR 24/11 A3012 RMK AO2 T02360107
KC75 192055Z AUTO 11004KT 10SM CLR 24/10 A3013 RMK AO2 T02370101